Time;durP1;ratioP1;P1;durP2;ratioP2;P2;SDS_P1;SDS_P2;PMS_P1;PMS_P2;Temp;Humidity;BMP_temperature;BMP_pressure;BME280_temperature;BME280_humidity;BME280_pressure;Samples;Min_cycle;Max_cycle;Signal;HPM_P1;HPM_P2
2021/09/18 00:01:45;;;;;;;;;11.50;10.75;;;;;17.31;63.18;100694.00;4958077;28;60550;-61
2021/09/18 00:04:11;;;;;;;;;14.75;11.25;;;;;17.29;63.20;100693.34;4957988;28;65948;-61
2021/09/18 00:06:37;;;;;;;;;14.50;10.75;;;;;17.27;63.27;100687.41;4957805;28;45323;-61
2021/09/18 00:09:02;;;;;;;;;11.25;9.00;;;;;17.26;63.36;100685.75;4958858;28;45211;-62
2021/09/18 00:11:28;;;;;;;;;9.75;9.75;;;;;17.24;63.27;100680.63;4957782;28;63709;-62
2021/09/18 00:13:53;;;;;;;;;10.50;9.50;;;;;17.23;63.36;100688.75;4957523;28;45433;-61
2021/09/18 00:16:18;;;;;;;;;11.75;11.00;;;;;17.18;63.31;100676.84;4958199;28;50395;-61
2021/09/18 00:18:44;;;;;;;;;10.50;9.00;;;;;17.15;63.42;100685.16;4957687;28;64937;-62
2021/09/18 00:21:09;;;;;;;;;12.50;10.75;;;;;17.11;63.33;100683.03;4957688;28;69844;-61
2021/09/18 00:23:35;;;;;;;;;14.75;10.75;;;;;17.08;63.33;100676.25;4957075;28;45412;-61
2021/09/18 00:26:00;;;;;;;;;13.50;13.50;;;;;17.06;63.50;100681.72;4957655;28;62657;-62
2021/09/18 00:28:26;;;;;;;;;12.00;11.25;;;;;17.03;63.25;100682.06;4957943;28;58754;-62
2021/09/18 00:30:51;;;;;;;;;10.00;9.25;;;;;17.01;63.29;100680.59;4958121;28;45439;-61
2021/09/18 00:33:16;;;;;;;;;10.75;10.50;;;;;16.98;63.45;100679.09;4956928;28;45406;-61
2021/09/18 00:35:42;;;;;;;;;11.25;8.00;;;;;16.96;63.38;100686.41;4958282;28;45655;-61
2021/09/18 00:38:07;;;;;;;;;8.75;8.75;;;;;16.93;63.59;100681.47;4957159;28;68905;-61
2021/09/18 00:40:32;;;;;;;;;12.00;11.00;;;;;16.92;63.53;100680.63;4957732;28;45360;-61
2021/09/18 00:42:58;;;;;;;;;11.00;11.00;;;;;16.92;63.32;100675.31;4957178;28;68933;-62
2021/09/18 00:45:23;;;;;;;;;11.25;11.25;;;;;16.91;63.55;100678.16;4957132;28;64822;-61
2021/09/18 00:47:49;;;;;;;;;10.00;8.00;;;;;16.90;63.39;100676.50;4957253;28;65841;-61
2021/09/18 00:50:14;;;;;;;;;8.50;8.50;;;;;16.89;63.23;100685.47;4958186;28;46049;-61
2021/09/18 00:52:39;;;;;;;;;11.00;7.50;;;;;16.87;63.64;100675.00;4957183;28;63981;-61
2021/09/18 00:55:05;;;;;;;;;15.50;11.00;;;;;16.87;63.88;100679.50;4957077;28;69605;-62
2021/09/18 00:57:31;;;;;;;;;10.25;10.25;;;;;16.83;63.82;100676.34;4957868;28;45597;-61
2021/09/18 01:00:02;;;;;;;;;14.25;10.25;;;;;16.82;63.46;100676.53;4956585;28;46345;-61
2021/09/18 01:02:27;;;;;;;;;9.25;8.00;;;;;16.77;63.62;100672.56;4956641;28;45337;-61
2021/09/18 01:04:53;;;;;;;;;10.25;10.25;;;;;16.76;63.43;100670.06;4957082;28;61936;-61
2021/09/18 01:07:18;;;;;;;;;10.50;9.50;;;;;16.74;63.56;100667.59;4955841;28;64673;-61
2021/09/18 01:09:43;;;;;;;;;11.75;10.25;;;;;16.72;63.90;100666.97;4956882;28;66379;-62
2021/09/18 01:12:09;;;;;;;;;13.00;11.00;;;;;16.72;63.95;100668.78;4939587;28;66367;-61
2021/09/18 01:14:35;;;;;;;;;8.75;8.50;;;;;16.70;63.82;100666.31;4958070;28;45299;-62
2021/09/18 01:17:00;;;;;;;;;11.50;10.25;;;;;16.69;63.81;100664.66;4957694;28;45195;-61
2021/09/18 01:19:26;;;;;;;;;10.25;9.00;;;;;16.67;63.67;100661.34;4957601;28;45595;-61
2021/09/18 01:21:51;;;;;;;;;11.25;9.50;;;;;16.65;63.90;100655.38;4956810;28;65406;-61
2021/09/18 01:24:16;;;;;;;;;11.75;10.25;;;;;16.62;63.56;100655.72;4955748;28;57408;-61
2021/09/18 01:26:42;;;;;;;;;10.00;9.00;;;;;16.59;63.87;100658.72;4957473;28;45233;-61
2021/09/18 01:29:08;;;;;;;;;13.25;10.50;;;;;16.58;63.87;100662.38;4957354;28;45246;-61
2021/09/18 01:31:51;;;;;;;;;11.00;9.25;;;;;16.55;63.78;100668.03;4956480;28;45411;-61
2021/09/18 01:34:18;;;;;;;;;10.00;9.00;;;;;16.53;63.73;100665.56;4956935;28;59537;-61
2021/09/18 01:36:43;;;;;;;;;11.00;11.00;;;;;16.49;63.86;100666.06;4957267;28;45508;-60
2021/09/18 01:39:12;;;;;;;;;9.00;8.75;;;;;16.47;63.81;100664.41;4955430;28;67261;-62
2021/09/18 01:41:38;;;;;;;;;12.50;8.75;;;;;16.46;63.86;100660.09;4957374;28;45379;-62
2021/09/18 01:44:04;;;;;;;;;7.00;7.00;;;;;16.47;63.86;100661.75;4957447;28;45226;-61
2021/09/18 01:46:29;;;;;;;;;11.50;9.25;;;;;16.46;64.02;100667.22;4956633;28;62133;-62
2021/09/18 01:48:55;;;;;;;;;9.25;8.50;;;;;16.44;64.24;100662.09;4957214;28;45334;-61
2021/09/18 01:51:20;;;;;;;;;12.25;9.50;;;;;16.43;64.08;100656.97;4956835;28;45322;-61
2021/09/18 01:53:46;;;;;;;;;9.00;8.00;;;;;16.41;64.42;100659.81;4957311;28;45261;-61
2021/09/18 01:56:11;;;;;;;;;9.25;8.00;;;;;16.41;64.22;100664.28;4957080;28;45515;-61
2021/09/18 01:58:37;;;;;;;;;9.75;8.00;;;;;16.38;64.07;100659.31;4956082;28;46256;-62
2021/09/18 02:01:03;;;;;;;;;11.50;9.00;;;;;16.34;63.50;100660.66;4957125;28;45167;-61
2021/09/18 02:03:30;;;;;;;;;10.00;9.25;;;;;16.31;63.80;100667.13;4955929;28;45367;-61
2021/09/18 02:05:55;;;;;;;;;10.00;8.25;;;;;16.31;64.08;100662.63;4957161;28;45532;-61
2021/09/18 02:08:22;;;;;;;;;9.25;8.50;;;;;16.32;64.06;100653.69;4955929;28;48280;-62
2021/09/18 02:10:47;;;;;;;;;8.00;8.00;;;;;16.32;64.20;100659.00;4956988;28;45339;-61
2021/09/18 02:13:12;;;;;;;;;11.25;9.50;;;;;16.30;64.07;100655.69;4955711;28;45328;-61
2021/09/18 02:15:38;;;;;;;;;9.75;9.75;;;;;16.30;64.13;100649.56;4957021;28;45239;-61
2021/09/18 02:18:04;;;;;;;;;10.00;9.75;;;;;16.29;63.91;100651.38;4955809;28;47274;-62
2021/09/18 02:20:30;;;;;;;;;9.25;9.00;;;;;16.27;64.12;100649.91;4955719;28;45216;-61
2021/09/18 02:22:55;;;;;;;;;9.50;9.50;;;;;16.25;64.26;100655.38;4954942;28;62990;-61
2021/09/18 02:25:21;;;;;;;;;9.25;9.25;;;;;16.22;64.25;100658.34;4957140;28;45215;-61
2021/09/18 02:27:47;;;;;;;;;9.50;8.50;;;;;16.22;64.62;100652.25;4956730;28;46328;-61
2021/09/18 02:30:14;;;;;;;;;11.00;9.50;;;;;16.19;64.41;100655.22;4957257;28;45290;-61
2021/09/18 02:32:39;;;;;;;;;11.00;11.00;;;;;16.18;64.22;100651.72;4960198;28;45257;-61
2021/09/18 02:35:07;;;;;;;;;8.00;8.00;;;;;16.15;64.25;100647.63;4957988;28;68855;-61
2021/09/18 02:37:32;;;;;;;;;10.50;9.75;;;;;16.15;64.10;100652.09;4959784;28;45339;-61
2021/09/18 02:39:58;;;;;;;;;13.00;10.00;;;;;16.14;64.24;100647.81;4959697;28;45424;-61
2021/09/18 02:42:23;;;;;;;;;10.25;9.50;;;;;16.12;64.03;100647.16;4960029;28;45719;-62
2021/09/18 02:44:48;;;;;;;;;11.25;10.00;;;;;16.10;64.29;100646.47;4958811;28;45219;-61
2021/09/18 02:47:14;;;;;;;;;9.75;8.25;;;;;16.09;64.38;100650.13;4958924;28;70384;-61
2021/09/18 02:49:39;;;;;;;;;10.50;8.25;;;;;16.07;64.40;100644.97;4959821;28;45303;-61
2021/09/18 02:52:05;;;;;;;;;12.00;10.00;;;;;16.04;64.13;100650.63;4959205;28;55932;-61
2021/09/18 02:54:30;;;;;;;;;9.00;8.50;;;;;16.02;63.75;100649.97;4959006;28;64356;-62
2021/09/18 02:56:55;;;;;;;;;9.50;9.50;;;;;15.98;63.76;100638.88;4959038;28;70560;-61
2021/09/18 02:59:21;;;;;;;;;9.75;7.75;;;;;15.95;63.93;100631.28;4958880;28;63847;-61
2021/09/18 03:01:46;;;;;;;;;8.50;8.50;;;;;15.95;63.94;100630.44;4959108;28;59765;-61
2021/09/18 03:04:11;;;;;;;;;12.25;11.50;;;;;15.97;64.27;100636.38;4958826;28;62993;-61
2021/09/18 03:06:37;;;;;;;;;10.25;10.25;;;;;15.97;64.47;100634.59;4958933;28;69773;-62
2021/09/18 03:09:02;;;;;;;;;12.00;9.50;;;;;15.98;64.25;100638.03;4958035;28;49257;-61
2021/09/18 03:11:27;;;;;;;;;11.00;11.00;;;;;15.99;64.49;100642.34;4958985;28;56146;-61
2021/09/18 03:13:53;;;;;;;;;13.00;11.00;;;;;15.96;64.56;100643.53;4958633;28;64589;-61
2021/09/18 03:16:18;;;;;;;;;8.00;8.00;;;;;15.94;65.05;100655.28;4958626;28;64919;-61
2021/09/18 03:18:44;;;;;;;;;12.00;10.25;;;;;15.92;65.01;100647.50;4958096;28;45387;-60
2021/09/18 03:21:09;;;;;;;;;12.25;10.00;;;;;15.89;64.52;100647.84;4958440;28;68480;-61
2021/09/18 03:23:34;;;;;;;;;12.00;11.25;;;;;15.86;64.48;100649.03;4959495;28;45258;-62
2021/09/18 03:26:00;;;;;;;;;9.00;9.00;;;;;15.84;64.35;100640.38;4958739;28;45398;-62
2021/09/18 03:28:25;;;;;;;;;10.00;10.00;;;;;15.84;64.40;100637.72;4959165;28;45385;-61
2021/09/18 03:30:50;;;;;;;;;9.25;9.25;;;;;15.85;64.44;100638.53;4957192;28;68633;-61
2021/09/18 03:33:16;;;;;;;;;9.75;9.75;;;;;15.85;64.72;100642.03;4959295;28;45314;-60
2021/09/18 03:35:42;;;;;;;;;12.50;11.00;;;;;15.86;64.31;100635.78;4958606;28;58622;-62
2021/09/18 03:38:08;;;;;;;;;10.75;8.50;;;;;15.87;64.15;100637.44;4958972;28;45878;-61
2021/09/18 03:40:34;;;;;;;;;13.75;12.00;;;;;15.87;64.21;100632.13;4958403;28;45412;-61
2021/09/18 03:42:59;;;;;;;;;9.50;9.50;;;;;15.90;64.64;100632.78;4957387;28;68705;-61
2021/09/18 03:45:25;;;;;;;;;11.75;9.00;;;;;15.92;64.70;100623.66;4958096;28;66286;-62
2021/09/18 03:47:50;;;;;;;;;9.00;9.00;;;;;15.94;64.88;100628.78;4958397;28;56746;-61
2021/09/18 03:50:15;;;;;;;;;7.50;7.50;;;;;15.96;64.63;100626.78;4958352;28;60301;-61
2021/09/18 03:52:41;;;;;;;;;11.00;11.00;;;;;15.97;64.86;100618.69;4958627;28;49294;-62
2021/09/18 03:55:06;;;;;;;;;10.00;9.75;;;;;15.98;64.86;100619.50;4958546;28;49009;-61
2021/09/18 03:57:32;;;;;;;;;10.50;9.50;;;;;16.01;64.95;100621.81;4957396;28;45252;-61
2021/09/18 03:59:57;;;;;;;;;10.75;8.75;;;;;16.02;65.04;100621.66;4957347;28;45260;-61
2021/09/18 04:02:23;;;;;;;;;8.00;8.00;;;;;16.03;64.96;100627.75;4957992;28;64380;-61
2021/09/18 04:04:48;;;;;;;;;10.25;7.75;;;;;16.02;65.30;100628.75;4957753;28;67445;-61
2021/09/18 04:07:13;;;;;;;;;9.75;8.00;;;;;16.03;65.18;100627.75;4958746;28;45326;-61
2021/09/18 04:09:39;;;;;;;;;10.25;10.25;;;;;16.03;65.16;100625.13;4957339;28;45365;-61
2021/09/18 04:12:05;;;;;;;;;12.00;8.75;;;;;16.04;65.34;100631.25;4958665;28;45600;-61
2021/09/18 04:14:30;;;;;;;;;9.75;9.25;;;;;16.04;65.39;100628.59;4958322;28;49349;-61
2021/09/18 04:16:55;;;;;;;;;11.50;9.50;;;;;16.02;65.45;100624.31;4957977;28;58492;-61
2021/09/18 04:19:21;;;;;;;;;9.00;9.00;;;;;16.01;65.58;100630.59;4957719;28;63856;-61
2021/09/18 04:21:46;;;;;;;;;11.00;9.25;;;;;16.02;65.65;100639.38;4957759;28;64563;-61
2021/09/18 04:24:12;;;;;;;;;10.75;8.50;;;;;16.01;65.56;100632.41;4957428;28;69572;-61
2021/09/18 04:26:37;;;;;;;;;10.25;9.00;;;;;16.00;65.36;100633.41;4957544;28;68952;-61
2021/09/18 04:29:02;;;;;;;;;8.25;8.25;;;;;15.98;65.86;100636.22;4958744;28;45305;-62
2021/09/18 04:31:28;;;;;;;;;10.00;8.75;;;;;15.98;65.67;100640.69;4958398;28;45397;-61
2021/09/18 04:33:53;;;;;;;;;10.00;9.00;;;;;15.96;65.93;100638.22;4957446;28;66860;-61
2021/09/18 04:36:19;;;;;;;;;7.00;7.00;;;;;15.94;66.23;100642.88;4957507;28;62807;-61
2021/09/18 04:38:44;;;;;;;;;8.50;8.50;;;;;15.94;65.87;100639.38;4958142;28;45278;-61
2021/09/18 04:41:10;;;;;;;;;8.25;8.25;;;;;15.93;66.02;100643.84;4958393;28;45298;-61
2021/09/18 04:43:35;;;;;;;;;8.00;8.00;;;;;15.94;66.04;100642.88;4957954;28;46549;-62
2021/09/18 04:46:01;;;;;;;;;8.75;8.25;;;;;15.94;65.91;100642.03;4956887;28;45340;-61
2021/09/18 04:48:26;;;;;;;;;8.50;8.50;;;;;15.93;65.83;100638.56;4958097;28;45228;-61
2021/09/18 04:50:51;;;;;;;;;13.25;11.50;;;;;15.93;65.45;100643.03;4957245;28;64168;-61
2021/09/18 04:53:17;;;;;;;;;11.00;11.00;;;;;15.93;65.34;100643.84;4957280;28;45972;-61
2021/09/18 04:55:42;;;;;;;;;16.25;9.25;;;;;15.96;65.76;100640.03;4957911;28;45230;-61
2021/09/18 04:58:08;;;;;;;;;9.00;8.25;;;;;15.98;66.15;100646.00;4958079;28;45269;-61
2021/09/18 05:00:33;;;;;;;;;7.50;7.00;;;;;15.98;66.10;100646.00;4956912;28;67155;-61
2021/09/18 05:02:59;;;;;;;;;8.75;8.00;;;;;16.00;65.68;100654.59;4955952;28;45481;-61
2021/09/18 05:05:24;;;;;;;;;8.50;7.00;;;;;16.01;66.00;100650.97;4955931;28;58534;-61
2021/09/18 05:07:49;;;;;;;;;10.25;8.75;;;;;16.01;65.73;100654.44;4955821;28;61248;-61
2021/09/18 05:10:15;;;;;;;;;8.25;8.25;;;;;16.01;66.23;100657.09;4957643;28;46714;-61
2021/09/18 05:12:41;;;;;;;;;9.75;8.50;;;;;16.01;65.66;100657.09;4956660;28;70317;-61
2021/09/18 05:15:07;;;;;;;;;8.25;7.50;;;;;16.04;66.06;100661.22;4940291;28;45394;-61
2021/09/18 05:17:32;;;;;;;;;8.75;8.25;;;;;16.03;65.97;100656.91;4957762;28;45326;-61
2021/09/18 05:19:58;;;;;;;;;7.75;7.00;;;;;16.04;66.10;100655.91;4956725;28;67729;-61
2021/09/18 05:22:23;;;;;;;;;8.75;8.00;;;;;16.05;66.01;100657.56;4955646;28;48153;-61
2021/09/18 05:24:49;;;;;;;;;9.75;9.25;;;;;16.07;65.63;100658.22;4956506;28;71077;-61
2021/09/18 05:27:14;;;;;;;;;9.50;9.00;;;;;16.08;65.88;100659.06;4957585;28;45221;-61
2021/09/18 05:29:43;;;;;;;;;8.50;7.75;;;;;16.09;65.76;100664.19;4956780;28;69065;-61
2021/09/18 05:32:08;;;;;;;;;8.25;8.25;;;;;16.11;65.45;100659.56;4956281;28;46065;-61
2021/09/18 05:34:34;;;;;;;;;9.50;7.25;;;;;16.09;65.75;100664.19;4956330;28;45403;-63
2021/09/18 05:36:59;;;;;;;;;8.00;8.00;;;;;16.09;65.60;100668.69;4956610;28;63001;-61
2021/09/18 05:39:24;;;;;;;;;10.75;10.75;;;;;16.08;65.79;100667.84;4956497;28;60142;-61
2021/09/18 05:41:50;;;;;;;;;9.00;8.00;;;;;16.09;65.81;100666.84;4956307;28;70341;-61
2021/09/18 05:44:15;;;;;;;;;7.25;7.25;;;;;16.09;65.83;100666.03;4955005;28;58021;-60
2021/09/18 05:46:41;;;;;;;;;10.75;9.25;;;;;16.10;65.91;100667.69;4956917;28;45382;-61
2021/09/18 05:49:06;;;;;;;;;10.00;8.75;;;;;16.11;66.05;100672.81;4957323;28;45564;-61
2021/09/18 05:51:31;;;;;;;;;12.00;9.00;;;;;16.11;65.57;100669.34;4956704;28;62124;-61
2021/09/18 05:53:57;;;;;;;;;8.75;8.25;;;;;16.11;65.80;100672.00;4956938;28;45394;-61
2021/09/18 05:56:22;;;;;;;;;9.50;8.25;;;;;16.11;65.82;100664.03;4955997;28;45547;-61
2021/09/18 05:58:47;;;;;;;;;10.25;9.50;;;;;16.11;66.16;100666.69;4956365;28;64746;-61
2021/09/18 06:01:13;;;;;;;;;10.75;10.75;;;;;16.11;65.81;100678.09;4956425;28;64350;-62
2021/09/18 06:03:38;;;;;;;;;11.50;10.00;;;;;16.12;65.84;100676.28;4955645;28;45209;-61
2021/09/18 06:06:03;;;;;;;;;8.50;8.25;;;;;16.12;66.03;100685.06;4959131;28;62792;-61
2021/09/18 06:08:29;;;;;;;;;8.00;8.00;;;;;16.13;65.79;100689.38;4959737;28;62693;-61
2021/09/18 06:10:54;;;;;;;;;9.00;9.00;;;;;16.14;65.76;100682.25;4960206;28;46449;-60
2021/09/18 06:13:20;;;;;;;;;9.75;8.00;;;;;16.15;66.12;100690.03;4960301;28;45274;-61
2021/09/18 06:15:45;;;;;;;;;11.00;9.00;;;;;16.16;66.11;100685.56;4959282;28;68525;-61
2021/09/18 06:18:10;;;;;;;;;11.00;9.75;;;;;16.17;66.03;100689.84;4958778;28;49338;-61
2021/09/18 06:20:36;;;;;;;;;11.00;9.75;;;;;16.19;66.21;100695.81;4960058;28;45350;-61
2021/09/18 06:23:01;;;;;;;;;11.00;10.00;;;;;16.21;66.57;100687.69;4960067;28;45270;-65
2021/09/18 06:25:27;;;;;;;;;8.00;8.00;;;;;16.26;66.34;100690.66;4959876;28;60120;-61
2021/09/18 06:27:52;;;;;;;;;9.50;8.50;;;;;16.29;66.35;100692.97;4959506;28;59482;-62
2021/09/18 06:30:18;;;;;;;;;8.75;8.25;;;;;16.34;66.05;100682.69;4959834;28;46292;-61
2021/09/18 06:32:43;;;;;;;;;7.75;7.75;;;;;16.38;66.06;100691.97;4959316;28;45354;-60
2021/09/18 06:35:09;;;;;;;;;8.75;8.75;;;;;16.41;66.21;100683.69;4960001;28;45497;-61
2021/09/18 06:37:42;;;;;;;;;8.50;7.25;;;;;16.44;65.97;100682.50;4959619;28;46245;-60
2021/09/18 06:40:08;;;;;;;;;10.75;9.50;;;;;16.50;65.90;100686.28;4958350;28;46234;-60
2021/09/18 06:42:33;;;;;;;;;10.75;9.00;;;;;16.55;65.66;100687.44;4959511;28;45604;-60
2021/09/18 06:44:58;;;;;;;;;10.50;9.00;;;;;16.60;65.50;100692.22;4958770;28;68274;-60
2021/09/18 06:47:24;;;;;;;;;11.75;9.25;;;;;16.65;64.77;100684.56;4959262;28;64836;-60
2021/09/18 06:49:49;;;;;;;;;10.50;9.00;;;;;16.71;63.73;100691.84;4958761;28;67665;-60
2021/09/18 06:52:14;;;;;;;;;14.00;11.00;;;;;16.77;63.35;100680.53;4958951;28;59088;-60
2021/09/18 06:54:41;;;;;;;;;12.00;10.50;;;;;16.88;62.97;100683.81;4958874;28;64493;-60
2021/09/18 06:57:11;;;;;;;;;5.25;5.25;;;;;16.96;62.94;100681.09;4959496;28;45382;-60
2021/09/18 06:59:36;;;;;;;;;12.25;10.50;;;;;17.06;62.02;100683.56;4957888;28;47040;-60
2021/09/18 07:02:02;;;;;;;;;10.50;10.50;;;;;17.15;62.09;100685.16;4959445;28;45278;-60
2021/09/18 07:04:27;;;;;;;;;9.25;9.25;;;;;17.30;61.20;100681.72;4958878;28;45160;-62
2021/09/18 07:06:53;;;;;;;;;12.00;12.00;;;;;17.38;60.94;100678.22;4959484;28;45191;-60
2021/09/18 07:09:18;;;;;;;;;12.75;11.75;;;;;17.48;60.72;100686.78;4958588;28;68602;-60
2021/09/18 07:11:43;;;;;;;;;13.75;12.75;;;;;17.55;60.63;100679.72;4959183;28;47891;-60
2021/09/18 07:14:09;;;;;;;;;11.75;10.00;;;;;17.64;60.43;100683.16;4959459;28;45302;-60
2021/09/18 07:16:34;;;;;;;;;10.75;10.25;;;;;17.77;60.30;100680.69;4958176;28;66771;-60
2021/09/18 07:18:59;;;;;;;;;13.50;13.00;;;;;17.95;59.67;100680.38;4958443;28;67841;-62
2021/09/18 07:21:25;;;;;;;;;11.75;9.00;;;;;18.14;59.37;100680.06;4958296;28;66698;-60
2021/09/18 07:23:50;;;;;;;;;9.00;9.00;;;;;18.32;59.05;100677.84;4958745;28;51135;-60
2021/09/18 07:26:16;;;;;;;;;9.50;9.25;;;;;18.49;58.82;100688.28;4957179;28;58621;-60
2021/09/18 07:28:41;;;;;;;;;13.50;10.00;;;;;18.63;58.23;100683.97;4957357;28;51692;-59
2021/09/18 07:31:07;;;;;;;;;10.25;10.00;;;;;18.69;57.51;100686.72;4957660;28;45460;-60
2021/09/18 07:33:32;;;;;;;;;13.75;9.00;;;;;18.73;57.19;100683.69;4959017;28;45614;-60
2021/09/18 07:35:57;;;;;;;;;9.75;9.75;;;;;18.75;56.76;100687.81;4958373;28;45251;-61
2021/09/18 07:38:23;;;;;;;;;10.50;9.25;;;;;18.75;56.88;100679.00;4956056;28;71104;-60
2021/09/18 07:40:53;;;;;;;;;7.50;7.50;;;;;18.74;56.44;100674.69;4957324;28;45741;-60
2021/09/18 07:43:18;;;;;;;;;12.00;10.25;;;;;18.74;56.64;100680.81;4957312;28;45385;-60
2021/09/18 07:45:44;;;;;;;;;9.00;8.00;;;;;18.75;56.95;100684.31;4959082;28;45512;-60
2021/09/18 07:48:09;;;;;;;;;9.75;9.50;;;;;18.77;56.16;100688.44;4958356;28;45559;-60
2021/09/18 07:50:35;;;;;;;;;12.00;9.25;;;;;18.77;56.35;100682.31;4958340;28;45364;-59
2021/09/18 07:53:00;;;;;;;;;9.25;9.00;;;;;18.79;56.29;100680.28;4957740;28;62526;-60
2021/09/18 07:55:26;;;;;;;;;10.25;10.25;;;;;18.80;56.15;100687.25;4958437;28;45251;-59
2021/09/18 07:57:52;;;;;;;;;9.25;7.75;;;;;18.81;56.39;100683.59;4958210;28;45440;-60
2021/09/18 08:00:17;;;;;;;;;15.25;10.50;;;;;18.84;56.11;100685.84;4958237;28;45346;-60
2021/09/18 08:02:42;;;;;;;;;13.00;10.00;;;;;18.84;56.07;100689.34;4958290;28;45280;-60
2021/09/18 08:05:08;;;;;;;;;14.25;10.25;;;;;18.85;55.95;100690.16;4958313;28;45419;-60
2021/09/18 08:07:34;;;;;;;;;10.25;9.00;;;;;18.87;55.38;100684.66;4957945;28;45377;-61
2021/09/18 08:10:00;;;;;;;;;11.00;11.00;;;;;18.90;55.40;100690.41;4958291;28;45733;-59
2021/09/18 08:12:26;;;;;;;;;11.00;9.50;;;;;18.92;55.86;100700.91;4958317;28;45339;-60
2021/09/18 08:14:52;;;;;;;;;9.75;9.00;;;;;18.94;55.95;100694.38;4958365;28;45235;-60
2021/09/18 08:17:17;;;;;;;;;12.50;11.00;;;;;18.96;55.78;100696.88;4957382;28;65142;-59
2021/09/18 08:19:43;;;;;;;;;10.25;9.25;;;;;18.98;56.70;100694.84;4957045;28;45330;-59
2021/09/18 08:22:08;;;;;;;;;9.00;8.50;;;;;19.00;56.81;100695.50;4957467;28;68504;-60
2021/09/18 08:24:33;;;;;;;;;17.00;11.00;;;;;19.04;56.81;100695.94;4957253;28;64509;-60
2021/09/18 08:26:59;;;;;;;;;9.75;8.25;;;;;19.05;56.39;100701.09;4957451;28;52148;-60
2021/09/18 08:29:24;;;;;;;;;11.50;11.25;;;;;19.11;56.46;100704.81;4957739;28;45375;-60
2021/09/18 08:31:49;;;;;;;;;14.75;12.00;;;;;19.19;57.06;100703.88;4958117;28;45260;-60
2021/09/18 08:34:15;;;;;;;;;11.50;11.50;;;;;19.27;56.79;100698.44;4956945;28;59554;-59
2021/09/18 08:36:40;;;;;;;;;13.75;12.50;;;;;19.37;56.48;100698.94;4957092;28;70408;-60
2021/09/18 08:39:06;;;;;;;;;10.00;10.00;;;;;19.52;55.68;100703.38;4957303;28;60068;-60
2021/09/18 08:41:31;;;;;;;;;10.25;10.25;;;;;19.73;55.78;100702.53;4957066;28;45668;-59
2021/09/18 08:43:57;;;;;;;;;9.00;9.00;;;;;19.97;54.92;100703.97;4956921;28;45279;-60
2021/09/18 08:46:24;;;;;;;;;10.50;10.50;;;;;20.23;54.33;100705.16;4956420;28;46336;-60
2021/09/18 08:48:49;;;;;;;;;13.25;10.75;;;;;20.47;53.90;100703.03;4956664;28;45806;-62
2021/09/18 08:51:15;;;;;;;;;11.00;9.25;;;;;20.73;53.07;100697.00;4939934;28;61316;-59
2021/09/18 08:53:40;;;;;;;;;16.25;15.25;;;;;21.01;53.12;100698.75;4955931;28;45640;-60
2021/09/18 08:56:06;;;;;;;;;10.00;10.00;;;;;21.32;51.90;100701.91;4957476;28;45337;-59
2021/09/18 08:58:31;;;;;;;;;12.00;11.00;;;;;21.59;51.56;100689.38;4957418;28;45338;-59
2021/09/18 09:00:57;;;;;;;;;13.50;13.50;;;;;21.90;50.69;100698.66;4956878;28;63531;-60
2021/09/18 09:03:26;;;;;;;;;11.25;9.50;;;;;22.19;49.82;100690.38;4957749;28;45190;-60
2021/09/18 09:05:58;;;;;;;;;8.75;8.75;;;;;22.41;49.30;100696.28;4957558;28;45618;-61
2021/09/18 09:08:23;;;;;;;;;9.25;8.75;;;;;22.65;48.79;100697.47;4957687;28;46204;-60
2021/09/18 09:10:49;;;;;;;;;5.50;5.50;;;;;22.89;48.08;100689.72;4956677;28;65008;-60
2021/09/18 09:13:16;;;;;;;;;9.75;8.00;;;;;23.13;47.35;100698.03;4957816;28;45315;-60
2021/09/18 09:15:44;;;;;;;;;9.75;8.75;;;;;23.36;46.83;100694.81;4957424;28;45864;-60
2021/09/18 09:18:18;;;;;;;;;8.00;8.00;;;;;23.64;46.12;100698.13;4957514;28;45212;-60
2021/09/18 09:20:44;;;;;;;;;10.50;8.75;;;;;23.91;45.62;100693.34;4957605;28;45260;-60
2021/09/18 09:23:20;;;;;;;;;7.25;7.25;;;;;24.16;44.43;100695.16;4957369;28;45160;-60
2021/09/18 09:25:50;;;;;;;;;8.75;8.75;;;;;24.36;44.42;100689.59;4957251;28;45283;-60
2021/09/18 09:28:25;;;;;;;;;8.00;7.50;;;;;24.57;44.41;100696.38;4956540;28;45919;-61
2021/09/18 09:30:51;;;;;;;;;8.75;8.75;;;;;24.82;44.03;100691.97;4957250;28;45326;-61
2021/09/18 09:33:17;;;;;;;;;9.00;8.00;;;;;25.01;43.07;100690.84;4955505;28;45569;-61
2021/09/18 09:35:42;;;;;;;;;10.00;9.00;;;;;25.21;42.98;100692.44;4956899;28;45347;-61
2021/09/18 09:38:08;;;;;;;;;9.00;9.00;;;;;25.40;42.27;100695.84;4957085;28;45370;-61
2021/09/18 09:40:45;;;;;;;;;9.75;8.00;;;;;25.58;41.49;100694.97;4959509;28;55706;-60
2021/09/18 09:43:12;;;;;;;;;10.50;8.50;;;;;25.76;41.42;100690.53;4960608;28;45283;-61
2021/09/18 09:45:37;;;;;;;;;9.00;9.00;;;;;25.92;41.24;100687.16;4958838;28;47554;-61
2021/09/18 09:48:06;;;;;;;;;6.00;6.00;;;;;26.09;40.39;100691.81;4960073;28;45288;-61
2021/09/18 09:50:31;;;;;;;;;7.75;7.75;;;;;26.25;39.89;100689.47;4960320;28;45334;-60
2021/09/18 09:52:57;;;;;;;;;9.75;8.00;;;;;26.40;39.66;100688.97;4959830;28;56897;-61
2021/09/18 09:55:22;;;;;;;;;9.00;7.50;;;;;26.58;39.03;100687.97;4960538;28;45291;-61
2021/09/18 09:58:01;;;;;;;;;6.00;6.00;;;;;26.67;38.20;100686.53;4959546;28;71745;-61
2021/09/18 10:00:38;;;;;;;;;6.75;6.50;;;;;26.71;38.40;100687.69;4960498;28;45311;-61
2021/09/18 10:03:03;;;;;;;;;9.00;7.00;;;;;26.74;38.01;100684.53;4960418;28;45572;-61
2021/09/18 10:05:28;;;;;;;;;11.00;9.00;;;;;26.80;38.21;100680.88;4960183;28;46288;-61
2021/09/18 10:07:54;;;;;;;;;8.00;7.50;;;;;26.89;37.66;100688.59;4959227;28;71093;-64
2021/09/18 10:10:19;;;;;;;;;7.75;7.75;;;;;26.90;37.23;100687.53;4959066;28;45411;-61
2021/09/18 10:12:45;;;;;;;;;5.50;5.50;;;;;26.88;37.12;100693.16;4957998;28;66528;-61
2021/09/18 10:15:10;;;;;;;;;9.25;9.25;;;;;26.89;37.37;100683.19;4959455;28;45262;-61
2021/09/18 10:17:38;;;;;;;;;7.75;7.00;;;;;26.86;37.40;100678.28;4959832;28;45384;-61
2021/09/18 10:20:09;;;;;;;;;13.25;9.25;;;;;26.85;37.67;100679.34;4960018;28;45251;-60
2021/09/18 10:25:22;;;;;;;;;9.00;9.00;;;;;26.94;37.51;100683.28;4959883;28;45354;-61
2021/09/18 10:28:09;;;;;;;;;9.75;6.50;;;;;27.06;36.86;100684.03;4959832;28;45362;-61
2021/09/18 10:30:57;;;;;;;;;6.50;6.50;;;;;27.20;37.10;100684.56;4960064;28;45259;-61
2021/09/18 10:33:28;;;;;;;;;8.75;7.00;;;;;27.34;36.36;100676.13;4960022;28;45234;-61
2021/09/18 10:35:55;;;;;;;;;10.50;8.25;;;;;27.45;36.10;100682.53;4959666;28;46597;-61
2021/09/18 10:38:24;;;;;;;;;7.50;7.50;;;;;27.56;36.43;100673.53;4959613;28;45188;-60
2021/09/18 10:41:09;;;;;;;;;7.50;7.25;;;;;27.72;36.02;100671.06;4960038;28;45338;-61
2021/09/18 10:43:37;;;;;;;;;7.00;7.00;;;;;27.87;35.43;100673.16;4958014;28;45341;-60
2021/09/18 10:46:03;;;;;;;;;8.00;7.25;;;;;27.99;35.35;100671.16;4959496;28;45340;-60
2021/09/18 10:48:38;;;;;;;;;11.00;7.00;;;;;28.02;35.12;100676.06;4959564;28;45692;-61
2021/09/18 10:51:03;;;;;;;;;8.00;8.00;;;;;27.92;34.37;100673.22;4958858;28;45255;-61
2021/09/18 10:53:29;;;;;;;;;8.00;7.25;;;;;27.80;34.71;100662.53;4959587;28;45251;-61
2021/09/18 10:56:01;;;;;;;;;13.50;12.00;;;;;27.73;35.62;100661.91;4957292;28;67413;-61
2021/09/18 10:58:27;;;;;;;;;6.00;6.00;;;;;27.76;36.15;100651.44;4959672;28;45322;-61
2021/09/18 11:00:59;;;;;;;;;6.00;6.00;;;;;27.91;35.60;100652.69;4958136;28;45400;-61
2021/09/18 11:03:44;;;;;;;;;11.00;11.00;;;;;28.10;35.60;100647.81;4959578;28;45544;-61
2021/09/18 11:06:36;;;;;;;;;13.25;12.00;;;;;28.30;34.43;100644.59;4958309;28;46487;-61
2021/09/18 11:09:02;;;;;;;;;6.75;5.25;;;;;28.42;34.67;100652.56;4958598;28;45250;-62
2021/09/18 11:11:27;;;;;;;;;7.00;7.00;;;;;28.57;34.14;100639.22;4958636;28;61430;-61
2021/09/18 11:13:53;;;;;;;;;6.00;6.00;;;;;28.77;33.78;100648.59;4959457;28;45263;-61
2021/09/18 11:16:19;;;;;;;;;5.75;5.75;;;;;28.92;33.79;100641.72;4958787;28;50636;-60
2021/09/18 11:18:47;;;;;;;;;7.00;5.25;;;;;28.91;32.74;100654.41;4958986;28;45306;-61